sensor_id;sensor_type;location;lat;lon;timestamp;pressure;altitude;pressure_sealevel;temperature;humidity
64025;BME280;50266;57.446;26.936;2022-12-19T00:00:59;100425.69;;;-1.88;100.0
64025;BME280;50266;57.446;26.936;2022-12-19T00:01:51;100431.92;;;-1.87;100.0
64025;BME280;50266;57.446;26.936;2022-12-19T00:02:51;100420.77;;;-1.82;100.0
64025;BME280;50266;57.446;26.936;2022-12-19T00:03:52;100426.52;;;-1.82;100.0
64025;BME280;50266;57.446;26.936;2022-12-19T00:04:51;100433.85;;;-1.85;100.0
64025;BME280;50266;57.446;26.936;2022-12-19T00:05:51;100427.5;;;-1.81;100.0
64025;BME280;50266;57.446;26.936;2022-12-19T00:06:51;100427.61;;;-1.79;100.0
64025;BME280;50266;57.446;26.936;2022-12-19T00:07:51;100435.64;;;-1.79;100.0
64025;BME280;50266;57.446;26.936;2022-12-19T00:08:52;100433.62;;;-1.76;100.0
64025;BME280;50266;57.446;26.936;2022-12-19T00:09:51;100436.29;;;-1.75;100.0
64025;BME280;50266;57.446;26.936;2022-12-19T00:10:55;100432.92;;;-1.77;100.0
64025;BME280;50266;57.446;26.936;2022-12-19T00:11:52;100428.31;;;-1.77;100.0
64025;BME280;50266;57.446;26.936;2022-12-19T00:12:51;100426.84;;;-1.75;100.0
64025;BME280;50266;57.446;26.936;2022-12-19T00:13:52;100434.06;;;-1.76;100.0
64025;BME280;50266;57.446;26.936;2022-12-19T00:14:52;100429.23;;;-1.75;100.0
64025;BME280;50266;57.446;26.936;2022-12-19T00:15:52;100427.82;;;-1.76;100.0
64025;BME280;50266;57.446;26.936;2022-12-19T00:16:52;100425.27;;;-1.77;100.0
64025;BME280;50266;57.446;26.936;2022-12-19T00:17:52;100422.98;;;-1.75;100.0
64025;BME280;50266;57.446;26.936;2022-12-19T00:18:53;100411.16;;;-1.74;100.0
64025;BME280;50266;57.446;26.936;2022-12-19T00:19:52;100429.39;;;-1.69;100.0
64025;BME280;50266;57.446;26.936;2022-12-19T00:20:53;100431.78;;;-1.68;100.0
64025;BME280;50266;57.446;26.936;2022-12-19T00:21:52;100427.49;;;-1.7;100.0
64025;BME280;50266;57.446;26.936;2022-12-19T00:22:52;100425.27;;;-1.73;100.0
64025;BME280;50266;57.446;26.936;2022-12-19T00:23:52;100433.79;;;-1.72;100.0
64025;BME280;50266;57.446;26.936;2022-12-19T00:24:52;100437.27;;;-1.7;100.0
64025;BME280;50266;57.446;26.936;2022-12-19T00:25:52;100429.28;;;-1.69;100.0
64025;BME280;50266;57.446;26.936;2022-12-19T00:26:52;100427.05;;;-1.69;100.0
64025;BME280;50266;57.446;26.936;2022-12-19T00:27:52;100423.91;;;-1.71;100.0
64025;BME280;50266;57.446;26.936;2022-12-19T00:28:56;100429.77;;;-1.7;100.0
64025;BME280;50266;57.446;26.936;2022-12-19T00:29:53;100418.53;;;-1.7;100.0
64025;BME280;50266;57.446;26.936;2022-12-19T00:30:53;100421.73;;;-1.67;100.0
64025;BME280;50266;57.446;26.936;2022-12-19T00:31:53;100426.42;;;-1.64;100.0
64025;BME280;50266;57.446;26.936;2022-12-19T00:32:54;100428.9;;;-1.68;100.0
64025;BME280;50266;57.446;26.936;2022-12-19T00:33:53;100430.8;;;-1.68;100.0
64025;BME280;50266;57.446;26.936;2022-12-19T00:34:53;100428.36;;;-1.66;100.0
64025;BME280;50266;57.446;26.936;2022-12-19T00:35:59;100440.57;;;-1.65;100.0
64025;BME280;50266;57.446;26.936;2022-12-19T00:36:56;100427.45;;;-1.61;100.0
64025;BME280;50266;57.446;26.936;2022-12-19T00:37:56;100435.92;;;-1.62;100.0
64025;BME280;50266;57.446;26.936;2022-12-19T00:38:57;100425.98;;;-1.6;100.0
64025;BME280;50266;57.446;26.936;2022-12-19T00:39:56;100448.78;;;-1.58;100.0
64025;BME280;50266;57.446;26.936;2022-12-19T00:41:05;100441.56;;;-1.59;100.0
64025;BME280;50266;57.446;26.936;2022-12-19T00:41:57;100441.52;;;-1.64;100.0
64025;BME280;50266;57.446;26.936;2022-12-19T00:42:57;100446.51;;;-1.63;100.0
64025;BME280;50266;57.446;26.936;2022-12-19T00:43:58;100448.68;;;-1.63;100.0
64025;BME280;50266;57.446;26.936;2022-12-19T00:44:57;100453.08;;;-1.6;100.0
64025;BME280;50266;57.446;26.936;2022-12-19T00:45:57;100450.41;;;-1.59;100.0
64025;BME280;50266;57.446;26.936;2022-12-19T00:46:57;100462.25;;;-1.62;100.0
64025;BME280;50266;57.446;26.936;2022-12-19T00:47:57;100452.86;;;-1.54;100.0
64025;BME280;50266;57.446;26.936;2022-12-19T00:48:57;100444.44;;;-1.56;100.0
64025;BME280;50266;57.446;26.936;2022-12-19T00:49:57;100446.94;;;-1.55;100.0
64025;BME280;50266;57.446;26.936;2022-12-19T00:50:57;100447.91;;;-1.57;100.0
64025;BME280;50266;57.446;26.936;2022-12-19T00:51:57;100443.41;;;-1.55;100.0
64025;BME280;50266;57.446;26.936;2022-12-19T00:52:57;100446.17;;;-1.54;100.0
64025;BME280;50266;57.446;26.936;2022-12-19T00:53:57;100449.44;;;-1.54;100.0
64025;BME280;50266;57.446;26.936;2022-12-19T00:54:57;100452.58;;;-1.54;100.0
64025;BME280;50266;57.446;26.936;2022-12-19T00:56:00;100452.47;;;-1.53;100.0
64025;BME280;50266;57.446;26.936;2022-12-19T00:56:57;100460.02;;;-1.51;100.0
64025;BME280;50266;57.446;26.936;2022-12-19T00:57:57;100448.72;;;-1.53;100.0
64025;BME280;50266;57.446;26.936;2022-12-19T00:58:57;100443.12;;;-1.52;100.0
64025;BME280;50266;57.446;26.936;2022-12-19T00:59:57;100446.83;;;-1.53;100.0
64025;BME280;50266;57.446;26.936;2022-12-19T01:00:57;100457.63;;;-1.53;100.0
64025;BME280;50266;57.446;26.936;2022-12-19T01:01:57;100451.92;;;-1.53;100.0
64025;BME280;50266;57.446;26.936;2022-12-19T01:02:57;100453.45;;;-1.5;100.0
64025;BME280;50266;57.446;26.936;2022-12-19T01:03:57;100453.45;;;-1.51;100.0
64025;BME280;50266;57.446;26.936;2022-12-19T01:04:59;100451.98;;;-1.54;100.0
64025;BME280;50266;57.446;26.936;2022-12-19T01:05:59;100453.45;;;-1.53;100.0
64025;BME280;50266;57.446;26.936;2022-12-19T01:06:59;100451.98;;;-1.53;100.0
64025;BME280;50266;57.446;26.936;2022-12-19T01:07:59;100446.38;;;-1.49;100.0
64025;BME280;50266;57.446;26.936;2022-12-19T01:08:59;100453.17;;;-1.51;100.0
64025;BME280;50266;57.446;26.936;2022-12-19T01:09:59;100445.52;;;-1.54;100.0
64025;BME280;50266;57.446;26.936;2022-12-19T01:10:59;100449.05;;;-1.51;100.0
64025;BME280;50266;57.446;26.936;2022-12-19T01:11:59;100439.11;;;-1.48;100.0
64025;BME280;50266;57.446;26.936;2022-12-19T01:12:59;100446.61;;;-1.51;100.0
64025;BME280;50266;57.446;26.936;2022-12-19T01:13:59;100446.5;;;-1.51;100.0
64025;BME280;50266;57.446;26.936;2022-12-19T01:14:59;100445.84;;;-1.51;100.0
64025;BME280;50266;57.446;26.936;2022-12-19T01:16:04;100440.3;;;-1.48;100.0
64025;BME280;50266;57.446;26.936;2022-12-19T01:17:01;100443.45;;;-1.49;100.0
64025;BME280;50266;57.446;26.936;2022-12-19T01:18:01;100435.91;;;-1.49;100.0
64025;BME280;50266;57.446;26.936;2022-12-19T01:19:01;100437.69;;;-1.48;100.0
64025;BME280;50266;57.446;26.936;2022-12-19T01:20:01;100435.75;;;-1.43;100.0
64025;BME280;50266;57.446;26.936;2022-12-19T01:21:02;100449.0;;;-1.41;100.0
64025;BME280;50266;57.446;26.936;2022-12-19T01:22:01;100437.97;;;-1.38;100.0
64025;BME280;50266;57.446;26.936;2022-12-19T01:23:01;100446.99;;;-1.43;100.0
64025;BME280;50266;57.446;26.936;2022-12-19T01:24:01;100438.58;;;-1.44;100.0
64025;BME280;50266;57.446;26.936;2022-12-19T01:25:01;100447.38;;;-1.41;100.0
64025;BME280;50266;57.446;26.936;2022-12-19T01:26:01;100443.95;;;-1.43;100.0
64025;BME280;50266;57.446;26.936;2022-12-19T01:27:01;100441.3;;;-1.44;100.0
64025;BME280;50266;57.446;26.936;2022-12-19T01:28:01;100449.58;;;-1.45;100.0
64025;BME280;50266;57.446;26.936;2022-12-19T01:29:01;100450.41;;;-1.41;100.0
64025;BME280;50266;57.446;26.936;2022-12-19T01:30:01;100453.08;;;-1.43;100.0
64025;BME280;50266;57.446;26.936;2022-12-19T01:31:03;100451.5;;;-1.42;100.0
64025;BME280;50266;57.446;26.936;2022-12-19T01:32:01;100448.84;;;-1.44;100.0
64025;BME280;50266;57.446;26.936;2022-12-19T01:33:01;100451.34;;;-1.42;100.0
64025;BME280;50266;57.446;26.936;2022-12-19T01:34:01;100448.73;;;-1.42;100.0
64025;BME280;50266;57.446;26.936;2022-12-19T01:35:01;100441.88;;;-1.39;100.0
64025;BME280;50266;57.446;26.936;2022-12-19T01:36:04;100449.7;;;-1.39;100.0
64025;BME280;50266;57.446;26.936;2022-12-19T01:37:01;100450.3;;;-1.42;100.0
64025;BME280;50266;57.446;26.936;2022-12-19T01:38:01;100451.28;;;-1.39;100.0
64025;BME280;50266;57.446;26.936;2022-12-19T01:39:03;100457.14;;;-1.36;100.0
64025;BME280;50266;57.446;26.936;2022-12-19T01:40:04;100451.01;;;-1.39;100.0
64025;BME280;50266;57.446;26.936;2022-12-19T01:41:04;100449.65;;;-1.4;100.0
64025;BME280;50266;57.446;26.936;2022-12-19T01:42:07;100446.55;;;-1.38;100.0
64025;BME280;50266;57.446;26.936;2022-12-19T01:43:08;100448.99;;;-1.37;100.0
64025;BME280;50266;57.446;26.936;2022-12-19T01:44:07;100442.05;;;-1.4;100.0
64025;BME280;50266;57.446;26.936;2022-12-19T01:45:18;100449.0;;;-1.39;100.0
64025;BME280;50266;57.446;26.936;2022-12-19T01:46:09;100442.36;;;-1.37;100.0
64025;BME280;50266;57.446;26.936;2022-12-19T01:47:11;100454.97;;;-1.37;100.0
64025;BME280;50266;57.446;26.936;2022-12-19T01:48:15;100454.2;;;-1.35;100.0
64025;BME280;50266;57.446;26.936;2022-12-19T01:49:17;100446.06;;;-1.37;100.0
64025;BME280;50266;57.446;26.936;2022-12-19T01:50:20;100456.27;;;-1.37;100.0
64025;BME280;50266;57.446;26.936;2022-12-19T01:51:20;100455.67;;;-1.35;100.0
64025;BME280;50266;57.446;26.936;2022-12-19T01:52:19;100456.64;;;-1.33;100.0
64025;BME280;50266;57.446;26.936;2022-12-19T01:53:20;100453.44;;;-1.34;100.0
64025;BME280;50266;57.446;26.936;2022-12-19T01:54:20;100460.19;;;-1.37;100.0
64025;BME280;50266;57.446;26.936;2022-12-19T01:55:19;100456.33;;;-1.37;100.0
64025;BME280;50266;57.446;26.936;2022-12-19T01:56:21;100449.48;;;-1.37;100.0
64025;BME280;50266;57.446;26.936;2022-12-19T01:57:19;100459.85;;;-1.35;100.0
64025;BME280;50266;57.446;26.936;2022-12-19T01:58:19;100461.81;;;-1.37;100.0
64025;BME280;50266;57.446;26.936;2022-12-19T01:59:20;100468.88;;;-1.37;100.0
64025;BME280;50266;57.446;26.936;2022-12-19T02:00:19;100456.66;;;-1.37;100.0
64025;BME280;50266;57.446;26.936;2022-12-19T02:01:19;100440.35;;;-1.36;100.0
64025;BME280;50266;57.446;26.936;2022-12-19T02:02:24;100457.73;;;-1.32;100.0
64025;BME280;50266;57.446;26.936;2022-12-19T02:03:26;100439.86;;;-1.32;100.0
64025;BME280;50266;57.446;26.936;2022-12-19T02:04:24;100449.8;;;-1.34;100.0
64025;BME280;50266;57.446;26.936;2022-12-19T02:05:28;100451.76;;;-1.34;100.0
64025;BME280;50266;57.446;26.936;2022-12-19T02:06:29;100446.44;;;-1.32;100.0
64025;BME280;50266;57.446;26.936;2022-12-19T02:07:28;100452.36;;;-1.33;100.0
64025;BME280;50266;57.446;26.936;2022-12-19T02:08:28;100436.81;;;-1.33;100.0
64025;BME280;50266;57.446;26.936;2022-12-19T02:09:28;100454.3;;;-1.3;100.0
64025;BME280;50266;57.446;26.936;2022-12-19T02:10:28;100446.38;;;-1.3;100.0
64025;BME280;50266;57.446;26.936;2022-12-19T02:11:28;100457.34;;;-1.3;100.0
64025;BME280;50266;57.446;26.936;2022-12-19T02:12:29;100464.12;;;-1.25;100.0
64025;BME280;50266;57.446;26.936;2022-12-19T02:13:28;100450.66;;;-1.29;100.0
64025;BME280;50266;57.446;26.936;2022-12-19T02:14:28;100462.02;;;-1.26;100.0
64025;BME280;50266;57.446;26.936;2022-12-19T02:15:29;100465.66;;;-1.27;100.0
64025;BME280;50266;57.446;26.936;2022-12-19T02:16:32;100464.84;;;-1.26;100.0
64025;BME280;50266;57.446;26.936;2022-12-19T02:17:38;100451.74;;;-1.27;100.0
64025;BME280;50266;57.446;26.936;2022-12-19T02:18:37;100470.0;;;-1.25;100.0
64025;BME280;50266;57.446;26.936;2022-12-19T02:23:54;100465.98;;;-1.26;100.0
64025;BME280;50266;57.446;26.936;2022-12-19T02:25:06;100479.89;;;-1.27;100.0
64025;BME280;50266;57.446;26.936;2022-12-19T02:25:59;100470.0;;;-1.26;100.0
64025;BME280;50266;57.446;26.936;2022-12-19T02:27:11;100453.64;;;-1.26;100.0
64025;BME280;50266;57.446;26.936;2022-12-19T02:30:15;100459.31;;;-1.23;100.0
64025;BME280;50266;57.446;26.936;2022-12-19T02:32:10;100462.08;;;-1.21;100.0
64025;BME280;50266;57.446;26.936;2022-12-19T02:33:16;100476.97;;;-1.22;100.0
64025;BME280;50266;57.446;26.936;2022-12-19T02:34:25;100469.73;;;-1.23;100.0
64025;BME280;50266;57.446;26.936;2022-12-19T02:35:22;100468.09;;;-1.24;100.0
64025;BME280;50266;57.446;26.936;2022-12-19T02:36:23;100469.52;;;-1.2;100.0
64025;BME280;50266;57.446;26.936;2022-12-19T02:37:28;100464.2;;;-1.22;100.0
64025;BME280;50266;57.446;26.936;2022-12-19T02:38:27;100472.02;;;-1.21;100.0
64025;BME280;50266;57.446;26.936;2022-12-19T02:39:31;100476.15;;;-1.22;100.0
64025;BME280;50266;57.446;26.936;2022-12-19T02:40:30;100466.91;;;-1.23;100.0
64025;BME280;50266;57.446;26.936;2022-12-19T02:41:33;100462.12;;;-1.19;100.0
64025;BME280;50266;57.446;26.936;2022-12-19T02:42:31;100474.41;;;-1.2;100.0
64025;BME280;50266;57.446;26.936;2022-12-19T02:43:31;100487.22;;;-1.18;100.0
64025;BME280;50266;57.446;26.936;2022-12-19T02:44:39;100477.17;;;-1.16;100.0
64025;BME280;50266;57.446;26.936;2022-12-19T02:45:33;100486.73;;;-1.2;100.0
64025;BME280;50266;57.446;26.936;2022-12-19T02:46:32;100479.62;;;-1.21;100.0
64025;BME280;50266;57.446;26.936;2022-12-19T02:47:32;100477.94;;;-1.22;100.0
64025;BME280;50266;57.446;26.936;2022-12-19T02:48:32;100484.18;;;-1.16;100.0
64025;BME280;50266;57.446;26.936;2022-12-19T02:49:33;100492.66;;;-1.14;100.0
64025;BME280;50266;57.446;26.936;2022-12-19T02:50:40;100486.89;;;-1.13;100.0
64025;BME280;50266;57.446;26.936;2022-12-19T02:51:36;100491.52;;;-1.14;100.0
64025;BME280;50266;57.446;26.936;2022-12-19T02:52:41;100491.19;;;-1.16;100.0
64025;BME280;50266;57.446;26.936;2022-12-19T02:53:38;100475.75;;;-1.14;100.0
64025;BME280;50266;57.446;26.936;2022-12-19T02:54:38;100491.99;;;-1.11;100.0
64025;BME280;50266;57.446;26.936;2022-12-19T02:55:48;100486.5;;;-1.11;100.0
64025;BME280;50266;57.446;26.936;2022-12-19T02:56:51;100496.34;;;-1.08;100.0
64025;BME280;50266;57.446;26.936;2022-12-19T02:59:01;100488.55;;;-1.03;100.0
64025;BME280;50266;57.446;26.936;2022-12-19T02:59:59;100485.3;;;-1.07;100.0
64025;BME280;50266;57.446;26.936;2022-12-19T03:01:56;100488.41;;;-1.01;100.0
64025;BME280;50266;57.446;26.936;2022-12-19T03:03:04;100490.19;;;-0.99;100.0
64025;BME280;50266;57.446;26.936;2022-12-19T03:05:22;100497.52;;;-0.96;100.0
64025;BME280;50266;57.446;26.936;2022-12-19T03:06:11;100484.3;;;-0.92;100.0
64025;BME280;50266;57.446;26.936;2022-12-19T03:08:20;100486.07;;;-0.85;100.0
64025;BME280;50266;57.446;26.936;2022-12-19T03:09:19;100479.82;;;-0.85;100.0
64025;BME280;50266;57.446;26.936;2022-12-19T03:10:24;100478.9;;;-0.85;100.0
64025;BME280;50266;57.446;26.936;2022-12-19T03:11:17;100476.72;;;-0.84;100.0
64025;BME280;50266;57.446;26.936;2022-12-19T03:12:20;100476.46;;;-0.88;100.0
64025;BME280;50266;57.446;26.936;2022-12-19T03:13:20;100491.25;;;-0.91;100.0
64025;BME280;50266;57.446;26.936;2022-12-19T03:14:18;100495.97;;;-0.8;100.0
64025;BME280;50266;57.446;26.936;2022-12-19T03:15:18;100490.2;;;-0.77;100.0
64025;BME280;50266;57.446;26.936;2022-12-19T03:16:18;100489.94;;;-0.79;100.0
64025;BME280;50266;57.446;26.936;2022-12-19T03:17:18;100493.73;;;-0.77;100.0
64025;BME280;50266;57.446;26.936;2022-12-19T03:18:18;100494.98;;;-0.78;100.0
64025;BME280;50266;57.446;26.936;2022-12-19T03:19:18;100490.2;;;-0.77;100.0
64025;BME280;50266;57.446;26.936;2022-12-19T03:22:21;100483.62;;;-0.77;100.0
64025;BME280;50266;57.446;26.936;2022-12-19T03:23:21;100502.7;;;-0.77;100.0
64025;BME280;50266;57.446;26.936;2022-12-19T03:24:21;100500.09;;;-0.76;100.0
64025;BME280;50266;57.446;26.936;2022-12-19T03:25:21;100501.61;;;-0.73;100.0
64025;BME280;50266;57.446;26.936;2022-12-19T03:26:22;100502.16;;;-0.74;100.0
64025;BME280;50266;57.446;26.936;2022-12-19T03:27:23;100501.99;;;-0.75;100.0
64025;BME280;50266;57.446;26.936;2022-12-19T03:28:25;100496.32;;;-0.7;100.0
64025;BME280;50266;57.446;26.936;2022-12-19T03:30:26;100506.03;;;-0.64;100.0
64025;BME280;50266;57.446;26.936;2022-12-19T03:31:27;100503.97;;;-0.6;100.0
64025;BME280;50266;57.446;26.936;2022-12-19T03:32:27;100490.14;;;-0.62;100.0
64025;BME280;50266;57.446;26.936;2022-12-19T03:33:27;100488.08;;;-0.63;100.0
64025;BME280;50266;57.446;26.936;2022-12-19T03:35:30;100498.42;;;-0.66;100.0
64025;BME280;50266;57.446;26.936;2022-12-19T03:36:31;100492.3;;;-0.69;100.0
64025;BME280;50266;57.446;26.936;2022-12-19T03:37:30;100498.21;;;-0.67;100.0
64025;BME280;50266;57.446;26.936;2022-12-19T03:38:30;100497.3;;;-0.71;100.0
64025;BME280;50266;57.446;26.936;2022-12-19T03:39:30;100494.46;;;-0.67;100.0
64025;BME280;50266;57.446;26.936;2022-12-19T03:40:30;100496.97;;;-0.68;100.0
64025;BME280;50266;57.446;26.936;2022-12-19T03:41:30;100503.05;;;-0.65;100.0
64025;BME280;50266;57.446;26.936;2022-12-19T03:42:30;100500.09;;;-0.62;100.0
64025;BME280;50266;57.446;26.936;2022-12-19T03:43:30;100493.58;;;-0.59;100.0
64025;BME280;50266;57.446;26.936;2022-12-19T03:44:31;100489.81;;;-0.57;100.0
64025;BME280;50266;57.446;26.936;2022-12-19T03:45:33;100495.09;;;-0.56;100.0
64025;BME280;50266;57.446;26.936;2022-12-19T03:46:36;100502.53;;;-0.54;100.0
64025;BME280;50266;57.446;26.936;2022-12-19T03:47:38;100494.97;;;-0.54;100.0
64025;BME280;50266;57.446;26.936;2022-12-19T03:48:46;100500.01;;;-0.49;100.0
64025;BME280;50266;57.446;26.936;2022-12-19T03:49:38;100507.95;;;-0.5;100.0
64025;BME280;50266;57.446;26.936;2022-12-19T03:50:51;100496.92;;;-0.52;100.0
64025;BME280;50266;57.446;26.936;2022-12-19T03:51:53;100494.2;;;-0.52;100.0
64025;BME280;50266;57.446;26.936;2022-12-19T03:52:53;100501.92;;;-0.52;100.0
64025;BME280;50266;57.446;26.936;2022-12-19T03:54:05;100498.92;;;-0.5;100.0
64025;BME280;50266;57.446;26.936;2022-12-19T03:54:58;100502.73;;;-0.52;100.0
64025;BME280;50266;57.446;26.936;2022-12-19T03:55:59;100503.22;;;-0.51;100.0
64025;BME280;50266;57.446;26.936;2022-12-19T03:57:04;100492.12;;;-0.51;100.0
64025;BME280;50266;57.446;26.936;2022-12-19T03:57:59;100487.34;;;-0.51;100.0
64025;BME280;50266;57.446;26.936;2022-12-19T03:59:01;100472.94;;;-0.54;100.0
64025;BME280;50266;57.446;26.936;2022-12-19T04:00:04;100478.77;;;-0.55;100.0
64025;BME280;50266;57.446;26.936;2022-12-19T04:01:02;100490.03;;;-0.58;100.0
64025;BME280;50266;57.446;26.936;2022-12-19T04:02:01;100485.26;;;-0.6;100.0
64025;BME280;50266;57.446;26.936;2022-12-19T04:03:01;100488.45;;;-0.58;100.0
64025;BME280;50266;57.446;26.936;2022-12-19T04:04:02;100494.55;;;-0.62;100.0
64025;BME280;50266;57.446;26.936;2022-12-19T04:05:03;100473.88;;;-0.58;100.0
64025;BME280;50266;57.446;26.936;2022-12-19T04:06:01;100493.52;;;-0.62;100.0
64025;BME280;50266;57.446;26.936;2022-12-19T04:07:01;100491.02;;;-0.63;100.0
64025;BME280;50266;57.446;26.936;2022-12-19T04:08:03;100498.46;;;-0.62;100.0
64025;BME280;50266;57.446;26.936;2022-12-19T04:09:01;100489.94;;;-0.61;100.0
64025;BME280;50266;57.446;26.936;2022-12-19T04:10:03;100494.61;;;-0.59;100.0
64025;BME280;50266;57.446;26.936;2022-12-19T04:11:06;100484.66;;;-0.6;100.0
64025;BME280;50266;57.446;26.936;2022-12-19T04:12:04;100502.38;;;-0.62;100.0
64025;BME280;50266;57.446;26.936;2022-12-19T04:13:06;100481.22;;;-0.57;100.0
64025;BME280;50266;57.446;26.936;2022-12-19T04:14:09;100487.55;;;-0.6;100.0
64025;BME280;50266;57.446;26.936;2022-12-19T04:15:07;100499.72;;;-0.57;100.0
64025;BME280;50266;57.446;26.936;2022-12-19T04:18:12;100500.1;;;-0.63;100.0
64025;BME280;50266;57.446;26.936;2022-12-19T04:19:19;100506.23;;;-0.62;100.0
64025;BME280;50266;57.446;26.936;2022-12-19T04:20:15;100506.84;;;-0.62;100.0
64025;BME280;50266;57.446;26.936;2022-12-19T04:21:16;100519.19;;;-0.64;100.0
64025;BME280;50266;57.446;26.936;2022-12-19T04:22:15;100509.12;;;-0.58;100.0
64025;BME280;50266;57.446;26.936;2022-12-19T04:24:24;100514.03;;;-0.61;100.0
64025;BME280;50266;57.446;26.936;2022-12-19T04:25:26;100520.55;;;-0.58;100.0
64025;BME280;50266;57.446;26.936;2022-12-19T04:26:24;100515.8;;;-0.54;100.0
64025;BME280;50266;57.446;26.936;2022-12-19T04:27:24;100513.58;;;-0.55;100.0
64025;BME280;50266;57.446;26.936;2022-12-19T04:28:26;100522.35;;;-0.59;100.0
64025;BME280;50266;57.446;26.936;2022-12-19T04:29:25;100525.17;;;-0.62;100.0
64025;BME280;50266;57.446;26.936;2022-12-19T04:30:25;100514.69;;;-0.61;100.0
64025;BME280;50266;57.446;26.936;2022-12-19T04:31:25;100514.34;;;-0.63;100.0
64025;BME280;50266;57.446;26.936;2022-12-19T04:32:25;100521.58;;;-0.62;100.0
64025;BME280;50266;57.446;26.936;2022-12-19T04:33:25;100519.14;;;-0.61;100.0
64025;BME280;50266;57.446;26.936;2022-12-19T04:34:25;100507.82;;;-0.63;100.0
64025;BME280;50266;57.446;26.936;2022-12-19T04:35:25;100503.53;;;-0.64;100.0
64025;BME280;50266;57.446;26.936;2022-12-19T04:36:25;100510.55;;;-0.64;100.0
64025;BME280;50266;57.446;26.936;2022-12-19T04:37:25;100511.91;;;-0.59;100.0
64025;BME280;50266;57.446;26.936;2022-12-19T04:38:25;100517.78;;;-0.64;100.0
64025;BME280;50266;57.446;26.936;2022-12-19T04:39:26;100513.58;;;-0.62;100.0
64025;BME280;50266;57.446;26.936;2022-12-19T04:40:25;100508.2;;;-0.63;100.0
64025;BME280;50266;57.446;26.936;2022-12-19T04:41:25;100502.56;;;-0.61;100.0
64025;BME280;50266;57.446;26.936;2022-12-19T04:42:25;100518.37;;;-0.57;100.0
64025;BME280;50266;57.446;26.936;2022-12-19T04:43:25;100521.3;;;-0.56;100.0
64025;BME280;50266;57.446;26.936;2022-12-19T04:44:25;100527.56;;;-0.58;100.0
64025;BME280;50266;57.446;26.936;2022-12-19T04:45:25;100516.74;;;-0.58;100.0
64025;BME280;50266;57.446;26.936;2022-12-19T04:46:25;100525.7;;;-0.56;100.0
64025;BME280;50266;57.446;26.936;2022-12-19T04:47:25;100511.39;;;-0.53;100.0
64025;BME280;50266;57.446;26.936;2022-12-19T04:48:25;100524.06;;;-0.52;100.0
64025;BME280;50266;57.446;26.936;2022-12-19T04:49:25;100516.25;;;-0.57;100.0
64025;BME280;50266;57.446;26.936;2022-12-19T04:50:25;100523.98;;;-0.58;100.0
64025;BME280;50266;57.446;26.936;2022-12-19T04:51:25;100523.16;;;-0.55;100.0
64025;BME280;50266;57.446;26.936;2022-12-19T04:52:25;100523.91;;;-0.56;100.0
64025;BME280;50266;57.446;26.936;2022-12-19T04:53:25;100527.89;;;-0.56;100.0
64025;BME280;50266;57.446;26.936;2022-12-19T04:54:25;100522.94;;;-0.56;100.0
64025;BME280;50266;57.446;26.936;2022-12-19T04:55:25;100525.33;;;-0.57;100.0
64025;BME280;50266;57.446;26.936;2022-12-19T04:56:25;100525.49;;;-0.56;100.0
64025;BME280;50266;57.446;26.936;2022-12-19T04:57:29;100535.55;;;-0.55;100.0
64025;BME280;50266;57.446;26.936;2022-12-19T04:58:25;100528.37;;;-0.54;100.0
64025;BME280;50266;57.446;26.936;2022-12-19T04:59:26;100529.93;;;-0.5;100.0
64025;BME280;50266;57.446;26.936;2022-12-19T05:00:25;100523.27;;;-0.56;100.0
64025;BME280;50266;57.446;26.936;2022-12-19T05:01:26;100528.16;;;-0.58;100.0
64025;BME280;50266;57.446;26.936;2022-12-19T05:02:26;100524.2;;;-0.59;100.0
64025;BME280;50266;57.446;26.936;2022-12-19T05:03:26;100521.69;;;-0.62;100.0
64025;BME280;50266;57.446;26.936;2022-12-19T05:04:26;100532.89;;;-0.62;100.0
64025;BME280;50266;57.446;26.936;2022-12-19T05:05:26;100525.83;;;-0.6;100.0
64025;BME280;50266;57.446;26.936;2022-12-19T05:06:26;100524.91;;;-0.6;100.0
64025;BME280;50266;57.446;26.936;2022-12-19T05:07:26;100531.16;;;-0.56;100.0
64025;BME280;50266;57.446;26.936;2022-12-19T05:08:26;100523.81;;;-0.58;100.0
64025;BME280;50266;57.446;26.936;2022-12-19T05:09:26;100530.72;;;-0.59;100.0
64025;BME280;50266;57.446;26.936;2022-12-19T05:10:26;100523.75;;;-0.55;100.0
64025;BME280;50266;57.446;26.936;2022-12-19T05:11:26;100532.23;;;-0.56;100.0
64025;BME280;50266;57.446;26.936;2022-12-19T05:12:27;100528.44;;;-0.57;100.0
64025;BME280;50266;57.446;26.936;2022-12-19T05:13:26;100526.16;;;-0.59;100.0
64025;BME280;50266;57.446;26.936;2022-12-19T05:14:26;100534.53;;;-0.58;100.0
64025;BME280;50266;57.446;26.936;2022-12-19T05:15:26;100530.88;;;-0.62;100.0
64025;BME280;50266;57.446;26.936;2022-12-19T05:16:26;100527.08;;;-0.6;100.0
64025;BME280;50266;57.446;26.936;2022-12-19T05:17:26;100519.78;;;-0.61;100.0
64025;BME280;50266;57.446;26.936;2022-12-19T05:18:26;100518.32;;;-0.64;100.0
64025;BME280;50266;57.446;26.936;2022-12-19T05:19:26;100512.83;;;-0.63;100.0
64025;BME280;50266;57.446;26.936;2022-12-19T05:20:26;100514.19;;;-0.65;100.0
64025;BME280;50266;57.446;26.936;2022-12-19T05:21:26;100520.23;;;-0.67;100.0
64025;BME280;50266;57.446;26.936;2022-12-19T05:22:26;100521.59;;;-0.64;100.0
64025;BME280;50266;57.446;26.936;2022-12-19T05:23:26;100524.64;;;-0.61;100.0
64025;BME280;50266;57.446;26.936;2022-12-19T05:24:26;100522.3;;;-0.59;100.0
64025;BME280;50266;57.446;26.936;2022-12-19T05:25:26;100525.28;;;-0.63;100.0
64025;BME280;50266;57.446;26.936;2022-12-19T05:26:26;100530.56;;;-0.66;100.0
64025;BME280;50266;57.446;26.936;2022-12-19T05:27:26;100535.24;;;-0.66;100.0
64025;BME280;50266;57.446;26.936;2022-12-19T05:28:26;100532.03;;;-0.59;100.0
64025;BME280;50266;57.446;26.936;2022-12-19T05:29:26;100529.09;;;-0.58;100.0
64025;BME280;50266;57.446;26.936;2022-12-19T05:30:26;100533.67;;;-0.6;100.0
64025;BME280;50266;57.446;26.936;2022-12-19T05:31:26;100531.11;;;-0.61;100.0
64025;BME280;50266;57.446;26.936;2022-12-19T05:32:28;100525.67;;;-0.66;100.0